Hovedside
METAR-TAF:

METAR-TAF

Lufthavner :

Ziguinchor, Senegal

breddegrad: 12-33N, lengdegrad: 016-16W, høyde over havet: 26 m

Gjeldene værobservasjon

Denne rapporten ble laget for 3 timer og 58 minutter siden, klokken 00:00 UTC
Vind 2 kt fra skiftende retning
Temperatur 23°C
Luftfuktighet 73%
Trykk 1012 hPa
Sikt 10 km eller mer
ingen skyer under 1500 m og ingen bygeskyer

METAR: GOGG 290000Z VRB02KT CAVOK 23/18 Q1012

Tid: 03:58 (03:58 UTC)


TAF: fraværende

Værobservasjoner og værvarsel for over 4000 flyplasser (METAR- og TAF-rapporter).

Tilgjengelige stasjoner er representert av de røde og gule prikkene på kartet.

Hold musepekeren over prikken for å se navnet på stasjonen.

Klikk så for å se værobservasjoner og -varsler.

For å forandre kartet kan du klikke på den grønne knappen med svart kryss for å zoome inn, på den grønne knappen med strek for å zoome ut, eller på de grønne pilene for å se tilstøtende kart.


METAR-TAF: